Time;durP1;ratioP1;P1;durP2;ratioP2;P2;SDS_P1;SDS_P2;PMS_P1;PMS_P2;Temp;Humidity;BMP_temperature;BMP_pressure;BME280_temperature;BME280_humidity;BME280_pressure;Samples;Min_cycle;Max_cycle;Signal;HPM_P1;HPM_P2
2024/03/21 00:00:59;;;;;;;0.90;0.90;;;;;;;;;;5009580;28;20032;-79
2024/03/21 00:03:25;;;;;;;0.90;0.82;;;;;;;;;;5023720;28;20056;-80
2024/03/21 00:05:51;;;;;;;1.40;1.17;;;;;;;;;;5021088;28;20022;-78
2024/03/21 00:08:17;;;;;;;1.60;1.42;;;;;;;;;;5030047;28;20396;-79
2024/03/21 00:10:43;;;;;;;1.90;1.58;;;;;;;;;;5025979;28;20029;-79
2024/03/21 00:13:09;;;;;;;2.40;1.75;;;;;;;;;;5009164;28;20097;-79
2024/03/21 00:15:36;;;;;;;1.50;1.40;;;;;;;;;;5005620;28;20056;-78
2024/03/21 00:18:02;;;;;;;2.08;1.75;;;;;;;;;;5025973;28;20030;-78
2024/03/21 00:20:29;;;;;;;3.05;1.92;;;;;;;;;;5021869;28;20052;-78
2024/03/21 00:22:55;;;;;;;2.38;1.92;;;;;;;;;;5013382;28;20033;-78
2024/03/21 00:25:21;;;;;;;1.60;1.50;;;;;;;;;;5024182;28;20030;-79
2024/03/21 00:27:50;;;;;;;1.70;1.60;;;;;;;;;;5037852;28;20061;-78
2024/03/21 00:30:16;;;;;;;2.88;1.88;;;;;;;;;;5021590;28;20037;-78
2024/03/21 00:32:42;;;;;;;3.78;2.10;;;;;;;;;;5033607;28;20012;-79
2024/03/21 00:35:08;;;;;;;2.10;1.83;;;;;;;;;;5050555;28;20033;-79
2024/03/21 00:37:35;;;;;;;1.73;1.60;;;;;;;;;;5043917;28;20025;-78
2024/03/21 00:40:01;;;;;;;1.98;1.63;;;;;;;;;;5039679;28;20017;-79
2024/03/21 00:42:27;;;;;;;1.73;1.63;;;;;;;;;;5032800;28;20048;-79
2024/03/21 00:44:53;;;;;;;1.90;1.73;;;;;;;;;;5039428;28;20009;-79
2024/03/21 00:47:19;;;;;;;1.83;1.50;;;;;;;;;;5034637;28;20034;-79
2024/03/21 00:49:45;;;;;;;1.95;1.67;;;;;;;;;;5034968;28;20045;-78
2024/03/21 00:52:12;;;;;;;1.55;1.42;;;;;;;;;;5038784;28;20117;-79
2024/03/21 00:54:38;;;;;;;2.03;1.55;;;;;;;;;;5033448;28;20081;-79
2024/03/21 00:57:04;;;;;;;2.40;2.10;;;;;;;;;;5028225;28;20034;-79
2024/03/21 00:59:30;;;;;;;1.50;1.40;;;;;;;;;;5040771;28;20026;-80
2024/03/21 01:01:56;;;;;;;3.10;2.80;;;;;;;;;;5032461;28;20040;-78
2024/03/21 01:04:23;;;;;;;3.17;2.28;;;;;;;;;;5028962;28;20049;-78
2024/03/21 01:06:49;;;;;;;3.08;2.20;;;;;;;;;;5024797;28;20041;-78
2024/03/21 01:09:15;;;;;;;2.05;1.65;;;;;;;;;;5042559;28;20104;-78
2024/03/21 01:11:42;;;;;;;2.45;1.85;;;;;;;;;;5017058;28;20018;-78
2024/03/21 01:14:09;;;;;;;2.03;1.67;;;;;;;;;;5036737;28;20037;-78
2024/03/21 01:16:35;;;;;;;1.60;1.38;;;;;;;;;;5016953;28;20030;-79
2024/03/21 01:19:01;;;;;;;2.25;2.03;;;;;;;;;;5038432;28;20018;-78
2024/03/21 01:21:29;;;;;;;1.60;1.40;;;;;;;;;;5040214;28;20017;-78
2024/03/21 01:23:55;;;;;;;2.25;1.63;;;;;;;;;;5017068;28;20022;-78
2024/03/21 01:26:21;;;;;;;1.60;1.40;;;;;;;;;;5014856;28;20050;-79
2024/03/21 01:28:47;;;;;;;1.92;1.73;;;;;;;;;;5039881;28;20099;-80
2024/03/21 01:31:20;;;;;;;2.58;1.63;;;;;;;;;;5040235;28;20025;-79
2024/03/21 01:33:47;;;;;;;1.98;1.50;;;;;;;;;;5032291;28;20030;-78
2024/03/21 01:36:14;;;;;;;2.20;1.75;;;;;;;;;;5043141;28;20028;-78
2024/03/21 01:38:40;;;;;;;1.25;1.15;;;;;;;;;;5042371;28;20025;-79
2024/03/21 01:41:06;;;;;;;1.77;1.60;;;;;;;;;;5037693;28;20018;-79
2024/03/21 01:43:33;;;;;;;1.98;1.50;;;;;;;;;;5020444;28;20021;-79
2024/03/21 01:46:08;;;;;;;1.95;1.42;;;;;;;;;;5037664;28;20021;-79
2024/03/21 01:48:34;;;;;;;1.80;1.60;;;;;;;;;;5031443;28;20031;-78
2024/03/21 01:51:01;;;;;;;1.48;1.38;;;;;;;;;;5029346;28;20060;-77
2024/03/21 01:53:27;;;;;;;2.05;1.52;;;;;;;;;;5033126;28;20464;-80
2024/03/21 01:55:54;;;;;;;2.17;1.77;;;;;;;;;;5018125;28;20030;-78
2024/03/21 01:58:20;;;;;;;3.38;2.03;;;;;;;;;;5038545;28;20021;-78
2024/03/21 02:00:47;;;;;;;2.35;1.77;;;;;;;;;;5033573;28;20022;-78
2024/03/21 02:03:14;;;;;;;2.25;1.52;;;;;;;;;;5033648;28;20014;-79
2024/03/21 02:05:40;;;;;;;2.10;1.50;;;;;;;;;;5034090;28;20014;-77
2024/03/21 02:08:08;;;;;;;1.83;1.58;;;;;;;;;;5033122;28;20061;-79
2024/03/21 02:10:36;;;;;;;1.83;1.52;;;;;;;;;;5031454;28;20108;-79
2024/03/21 02:13:02;;;;;;;1.35;1.25;;;;;;;;;;5033711;28;20025;-79
2024/03/21 02:15:28;;;;;;;1.45;1.30;;;;;;;;;;5016316;28;20049;-79
2024/03/21 02:17:54;;;;;;;1.80;1.50;;;;;;;;;;5025798;28;20022;-79
2024/03/21 02:20:21;;;;;;;1.67;1.38;;;;;;;;;;5031219;28;20035;-78
2024/03/21 02:22:47;;;;;;;1.52;1.30;;;;;;;;;;5034664;28;20388;-78
2024/03/21 02:25:13;;;;;;;1.58;1.35;;;;;;;;;;5015678;28;20018;-78
2024/03/21 02:27:40;;;;;;;1.48;1.30;;;;;;;;;;5030635;28;20030;-79
2024/03/21 02:30:07;;;;;;;1.70;1.60;;;;;;;;;;5029517;28;20025;-79
2024/03/21 02:32:33;;;;;;;1.55;1.27;;;;;;;;;;5029453;28;20029;-78
2024/03/21 02:35:00;;;;;;;1.63;1.40;;;;;;;;;;5033144;28;20047;-78
2024/03/21 02:37:26;;;;;;;1.42;1.33;;;;;;;;;;5031098;28;20028;-79
2024/03/21 02:39:52;;;;;;;1.60;1.50;;;;;;;;;;5028491;28;20017;-79
2024/03/21 02:42:19;;;;;;;1.38;1.17;;;;;;;;;;5034160;28;20067;-79
2024/03/21 02:44:49;;;;;;;1.27;1.17;;;;;;;;;;5029469;28;20022;-79
2024/03/21 02:47:15;;;;;;;1.63;1.48;;;;;;;;;;5037709;28;20480;-78
2024/03/21 02:49:41;;;;;;;2.03;1.38;;;;;;;;;;5037059;28;20068;-78
2024/03/21 02:52:07;;;;;;;1.35;1.25;;;;;;;;;;5036933;28;20029;-78
2024/03/21 02:54:34;;;;;;;1.48;1.38;;;;;;;;;;5037196;28;20237;-78
2024/03/21 02:57:00;;;;;;;1.50;1.35;;;;;;;;;;5036291;28;20025;-78
2024/03/21 02:59:26;;;;;;;1.42;1.30;;;;;;;;;;5035210;28;20029;-78
2024/03/21 03:01:53;;;;;;;1.88;1.40;;;;;;;;;;5029974;28;20184;-78
2024/03/21 03:04:19;;;;;;;1.35;1.25;;;;;;;;;;5039640;28;20069;-78
2024/03/21 03:06:45;;;;;;;1.77;1.33;;;;;;;;;;5038982;28;20068;-78
2024/03/21 03:09:13;;;;;;;2.22;1.25;;;;;;;;;;5037613;28;20044;-78
2024/03/21 03:11:39;;;;;;;1.35;1.25;;;;;;;;;;5038495;28;20018;-78
2024/03/21 03:14:06;;;;;;;1.60;1.05;;;;;;;;;;5043224;28;20104;-79
2024/03/21 03:16:32;;;;;;;2.03;1.40;;;;;;;;;;5025687;28;20112;-78
2024/03/21 03:18:58;;;;;;;1.30;1.20;;;;;;;;;;5049619;28;20077;-79
2024/03/21 03:21:25;;;;;;;1.50;1.35;;;;;;;;;;5055622;28;20037;-80
2024/03/21 03:23:51;;;;;;;1.25;1.15;;;;;;;;;;5045979;28;20028;-79
2024/03/21 03:26:18;;;;;;;0.80;0.80;;;;;;;;;;5039140;28;20029;-80
2024/03/21 03:28:44;;;;;;;1.65;1.25;;;;;;;;;;5038350;28;20029;-80
2024/03/21 03:31:10;;;;;;;1.38;1.27;;;;;;;;;;5039779;28;20033;-79
2024/03/21 03:36:22;;;;;;;1.20;1.10;;;;;;;;;;5039022;28;20086;-78
2024/03/21 03:38:48;;;;;;;1.40;0.95;;;;;;;;;;5036032;28;20033;-78
2024/03/21 03:41:16;;;;;;;1.02;0.93;;;;;;;;;;5034651;28;20018;-78
2024/03/21 03:43:42;;;;;;;1.23;1.10;;;;;;;;;;5039386;28;20018;-78
2024/03/21 03:46:08;;;;;;;0.93;0.93;;;;;;;;;;5036893;28;20037;-78
2024/03/21 03:48:34;;;;;;;1.17;1.02;;;;;;;;;;5038170;28;20025;-79
2024/03/21 03:51:01;;;;;;;1.38;1.10;;;;;;;;;;5037382;28;20041;-78
2024/03/21 03:53:27;;;;;;;1.38;1.10;;;;;;;;;;5044696;28;20081;-79
2024/03/21 03:55:53;;;;;;;1.10;0.90;;;;;;;;;;5038190;28;20101;-79
2024/03/21 03:58:20;;;;;;;0.80;0.80;;;;;;;;;;5041931;28;20025;-79
2024/03/21 04:00:46;;;;;;;0.70;0.70;;;;;;;;;;5022485;28;20112;-78
2024/03/21 04:03:12;;;;;;;0.75;0.75;;;;;;;;;;5010506;28;20032;-78
2024/03/21 04:05:39;;;;;;;0.82;0.82;;;;;;;;;;5040921;28;20405;-78
2024/03/21 04:08:05;;;;;;;1.30;1.05;;;;;;;;;;5031112;28;20041;-79
2024/03/21 04:10:31;;;;;;;0.80;0.80;;;;;;;;;;5033035;28;20085;-79
2024/03/21 04:12:57;;;;;;;0.85;0.80;;;;;;;;;;5039289;28;20037;-80
2024/03/21 04:15:23;;;;;;;0.47;0.47;;;;;;;;;;5025487;28;20085;-79
2024/03/21 04:17:50;;;;;;;1.15;0.70;;;;;;;;;;5026577;28;20058;-79
2024/03/21 04:20:16;;;;;;;0.75;0.75;;;;;;;;;;5032713;28;20025;-78
2024/03/21 04:22:43;;;;;;;0.50;0.50;;;;;;;;;;5028418;28;20022;-78
2024/03/21 04:25:11;;;;;;;1.17;0.70;;;;;;;;;;5023879;28;20153;-78
2024/03/21 04:27:38;;;;;;;0.60;0.60;;;;;;;;;;5032461;28;20042;-78
2024/03/21 04:30:05;;;;;;;0.70;0.70;;;;;;;;;;5034337;28;20104;-78
2024/03/21 04:32:31;;;;;;;0.50;0.50;;;;;;;;;;5024297;28;20057;-79
2024/03/21 04:34:57;;;;;;;0.88;0.65;;;;;;;;;;5022428;28;20095;-79
2024/03/21 04:37:23;;;;;;;0.73;0.70;;;;;;;;;;5041990;28;20714;-78
2024/03/21 04:39:49;;;;;;;0.40;0.40;;;;;;;;;;5034005;28;20100;-77
2024/03/21 04:42:16;;;;;;;0.70;0.70;;;;;;;;;;5026949;28;20029;-77
2024/03/21 04:44:43;;;;;;;0.50;0.50;;;;;;;;;;5019590;28;20034;-78
2024/03/21 04:47:09;;;;;;;0.57;0.55;;;;;;;;;;5013860;28;20033;-78
2024/03/21 04:49:35;;;;;;;0.90;0.63;;;;;;;;;;5026112;28;20044;-79
2024/03/21 04:52:01;;;;;;;1.35;0.80;;;;;;;;;;5016521;28;20034;-79
2024/03/21 04:54:27;;;;;;;0.60;0.60;;;;;;;;;;5007018;28;20041;-79
2024/03/21 04:56:54;;;;;;;1.05;0.75;;;;;;;;;;5017634;28;20029;-78
2024/03/21 04:59:21;;;;;;;0.60;0.60;;;;;;;;;;5031397;28;20018;-77
2024/03/21 05:01:48;;;;;;;1.08;0.60;;;;;;;;;;5024487;28;20025;-78
2024/03/21 05:04:14;;;;;;;0.60;0.60;;;;;;;;;;5017582;28;20542;-79
2024/03/21 05:06:40;;;;;;;0.60;0.60;;;;;;;;;;5017861;28;20022;-79
2024/03/21 05:09:07;;;;;;;0.60;0.60;;;;;;;;;;5022623;28;20026;-79
2024/03/21 05:11:33;;;;;;;0.65;0.57;;;;;;;;;;5019237;28;20091;-79
2024/03/21 05:13:59;;;;;;;0.90;0.80;;;;;;;;;;5035579;28;20029;-78
2024/03/21 05:16:28;;;;;;;0.80;0.80;;;;;;;;;;5018259;28;20029;-77
2024/03/21 05:18:54;;;;;;;0.80;0.70;;;;;;;;;;5023732;28;20024;-78
2024/03/21 05:21:21;;;;;;;0.60;0.60;;;;;;;;;;5034374;28;20081;-78
2024/03/21 05:23:47;;;;;;;0.50;0.50;;;;;;;;;;5034560;28;20056;-78
2024/03/21 05:26:13;;;;;;;0.68;0.52;;;;;;;;;;5049824;28;20041;-77
2024/03/21 05:28:39;;;;;;;0.60;0.60;;;;;;;;;;5030774;28;20171;-77
2024/03/21 05:31:20;;;;;;;0.50;0.50;;;;;;;;;;5028700;28;20031;-77
2024/03/21 05:33:46;;;;;;;0.47;0.47;;;;;;;;;;5026656;28;20018;-77
2024/03/21 05:36:12;;;;;;;0.50;0.50;;;;;;;;;;5020699;28;20022;-79
2024/03/21 05:38:38;;;;;;;1.02;0.60;;;;;;;;;;5017649;28;20084;-78
2024/03/21 05:41:04;;;;;;;0.30;0.30;;;;;;;;;;5011196;28;20025;-77
2024/03/21 05:43:30;;;;;;;0.73;0.50;;;;;;;;;;5014492;28;20018;-78
2024/03/21 05:45:56;;;;;;;0.77;0.77;;;;;;;;;;5017238;28;20049;-78
2024/03/21 05:48:22;;;;;;;1.20;0.63;;;;;;;;;;5023155;28;20116;-77
2024/03/21 05:50:48;;;;;;;0.50;0.50;;;;;;;;;;5029114;28;20030;-77
2024/03/21 05:53:15;;;;;;;0.80;0.80;;;;;;;;;;5022575;28;20053;-81
2024/03/21 05:55:41;;;;;;;0.95;0.50;;;;;;;;;;5032753;28;20010;-77
2024/03/21 05:58:07;;;;;;;0.70;0.45;;;;;;;;;;5028489;28;20046;-78
2024/03/21 06:00:34;;;;;;;0.40;0.40;;;;;;;;;;5003751;28;20045;-79
2024/03/21 06:03:00;;;;;;;0.43;0.43;;;;;;;;;;5028654;28;20085;-79
2024/03/21 06:05:26;;;;;;;0.57;0.43;;;;;;;;;;5018570;28;20018;-78
2024/03/21 06:07:52;;;;;;;0.40;0.30;;;;;;;;;;5026087;28;20037;-79
2024/03/21 06:10:19;;;;;;;0.57;0.40;;;;;;;;;;5027145;28;20045;-82
2024/03/21 06:12:46;;;;;;;0.40;0.40;;;;;;;;;;5029728;28;20037;-80
2024/03/21 06:15:12;;;;;;;0.60;0.60;;;;;;;;;;5041415;28;20034;-77
2024/03/21 06:17:39;;;;;;;0.57;0.43;;;;;;;;;;5026326;28;20033;-79
2024/03/21 06:20:06;;;;;;;0.75;0.50;;;;;;;;;;5018954;28;20034;-79
2024/03/21 06:22:36;;;;;;;1.08;0.40;;;;;;;;;;5007894;28;20572;-79
2024/03/21 06:25:02;;;;;;;1.20;0.60;;;;;;;;;;5025703;28;20373;-79
2024/03/21 06:27:28;;;;;;;0.55;0.47;;;;;;;;;;5029810;28;20453;-78
2024/03/21 06:29:55;;;;;;;0.70;0.68;;;;;;;;;;5014843;28;20033;-79
2024/03/21 06:32:21;;;;;;;1.02;0.60;;;;;;;;;;5005646;28;20133;-78
2024/03/21 06:34:47;;;;;;;0.50;0.50;;;;;;;;;;5021023;28;20037;-79
2024/03/21 06:37:13;;;;;;;0.40;0.40;;;;;;;;;;5020771;28;20025;-78
2024/03/21 06:39:39;;;;;;;0.63;0.50;;;;;;;;;;5035871;28;20021;-78
2024/03/21 06:42:05;;;;;;;0.77;0.77;;;;;;;;;;5029634;28;20036;-78
2024/03/21 06:44:31;;;;;;;0.47;0.43;;;;;;;;;;5020088;28;20033;-78
2024/03/21 06:46:57;;;;;;;0.52;0.40;;;;;;;;;;5018061;28;20050;-78
2024/03/21 06:49:23;;;;;;;0.20;0.20;;;;;;;;;;5000461;28;20037;-77
2024/03/21 06:51:49;;;;;;;0.47;0.47;;;;;;;;;;5020016;28;20045;-79
2024/03/21 06:54:15;;;;;;;0.30;0.30;;;;;;;;;;5015299;28;20342;-77
2024/03/21 06:56:42;;;;;;;0.45;0.43;;;;;;;;;;5024206;28;20045;-78
2024/03/21 06:59:08;;;;;;;1.55;0.50;;;;;;;;;;5015690;28;20026;-78
2024/03/21 07:01:34;;;;;;;0.30;0.30;;;;;;;;;;5017905;28;20085;-78
2024/03/21 07:04:00;;;;;;;0.50;0.50;;;;;;;;;;5018370;28;20057;-78
2024/03/21 07:06:26;;;;;;;1.10;0.60;;;;;;;;;;5002471;28;20018;-78
2024/03/21 07:08:52;;;;;;;0.85;0.70;;;;;;;;;;5029593;28;20017;-79
2024/03/21 07:11:18;;;;;;;1.13;0.60;;;;;;;;;;5024813;28;20037;-78
2024/03/21 07:13:45;;;;;;;0.60;0.60;;;;;;;;;;5022849;28;20030;-79
2024/03/21 07:16:16;;;;;;;1.25;0.57;;;;;;;;;;5003020;28;20022;-79
2024/03/21 07:18:42;;;;;;;1.88;0.98;;;;;;;;;;5020667;28;20057;-78
2024/03/21 07:21:08;;;;;;;2.28;0.70;;;;;;;;;;5029697;28;20029;-79
2024/03/21 07:23:35;;;;;;;2.30;0.98;;;;;;;;;;5027693;28;20454;-79
2024/03/21 07:26:01;;;;;;;1.50;0.88;;;;;;;;;;5009031;28;20028;-79
2024/03/21 07:28:27;;;;;;;1.00;1.00;;;;;;;;;;5029129;28;20025;-78
2024/03/21 07:30:57;;;;;;;1.90;1.00;;;;;;;;;;5050259;28;20021;-79
2024/03/21 07:33:23;;;;;;;1.15;0.90;;;;;;;;;;5044668;28;20360;-78
2024/03/21 07:35:55;;;;;;;1.08;0.70;;;;;;;;;;5026966;28;20132;-79
2024/03/21 07:38:22;;;;;;;1.77;1.10;;;;;;;;;;5042759;28;20089;-79
2024/03/21 07:40:55;;;;;;;0.90;0.82;;;;;;;;;;5041926;28;20030;-79
2024/03/21 07:43:21;;;;;;;1.73;1.30;;;;;;;;;;5028572;28;20026;-79
2024/03/21 07:45:47;;;;;;;1.65;1.17;;;;;;;;;;5028912;28;20200;-80
2024/03/21 07:48:13;;;;;;;1.70;1.10;;;;;;;;;;5026404;28;20030;-80
2024/03/21 07:50:39;;;;;;;1.67;1.13;;;;;;;;;;5028941;28;20128;-81
2024/03/21 07:53:07;;;;;;;2.10;0.90;;;;;;;;;;5024426;28;20072;-78
2024/03/21 07:55:33;;;;;;;1.17;1.00;;;;;;;;;;5026522;28;20026;-79
2024/03/21 07:58:06;;;;;;;2.58;1.30;;;;;;;;;;5033798;28;20109;-79
2024/03/21 08:00:32;;;;;;;1.35;1.20;;;;;;;;;;5035501;28;20030;-79
2024/03/21 08:02:58;;;;;;;1.27;1.10;;;;;;;;;;5027711;28;20029;-79
2024/03/21 08:05:25;;;;;;;4.47;1.83;;;;;;;;;;5033833;28;20014;-79
2024/03/21 08:07:51;;;;;;;1.10;1.00;;;;;;;;;;5013198;28;20026;-79
2024/03/21 08:10:17;;;;;;;1.27;1.17;;;;;;;;;;5034805;28;20033;-78
2024/03/21 08:12:44;;;;;;;1.58;1.40;;;;;;;;;;5024830;28;20060;-78
2024/03/21 08:15:10;;;;;;;2.92;1.73;;;;;;;;;;5017948;28;20667;-78
2024/03/21 08:17:36;;;;;;;2.60;1.63;;;;;;;;;;5003156;28;20030;-78
2024/03/21 08:20:04;;;;;;;3.42;1.58;;;;;;;;;;5021956;28;20026;-78
2024/03/21 08:22:30;;;;;;;5.55;1.77;;;;;;;;;;5018949;28;20029;-79
2024/03/21 08:24:56;;;;;;;1.85;1.33;;;;;;;;;;5025816;28;20096;-79
2024/03/21 08:27:23;;;;;;;1.83;1.50;;;;;;;;;;5031242;28;20025;-77
2024/03/21 08:29:53;;;;;;;1.67;1.25;;;;;;;;;;5022287;28;20036;-80
2024/03/21 08:32:21;;;;;;;3.30;1.65;;;;;;;;;;5023034;28;20021;-78
2024/03/21 08:34:51;;;;;;;2.35;1.10;;;;;;;;;;5024423;28;20060;-79
2024/03/21 08:37:17;;;;;;;2.08;1.75;;;;;;;;;;5027577;28;20502;-80
2024/03/21 08:39:43;;;;;;;2.90;1.80;;;;;;;;;;5020678;28;20040;-80
2024/03/21 08:42:09;;;;;;;1.92;1.20;;;;;;;;;;5018917;28;20526;-79
2024/03/21 08:44:35;;;;;;;2.38;1.30;;;;;;;;;;5021416;28;20100;-79
2024/03/21 08:47:01;;;;;;;1.67;1.58;;;;;;;;;;5020795;28;20022;-80
2024/03/21 08:49:28;;;;;;;5.07;1.60;;;;;;;;;;5029660;28;20037;-79
2024/03/21 08:51:54;;;;;;;3.88;1.63;;;;;;;;;;5021387;28;20030;-79
2024/03/21 08:54:20;;;;;;;2.33;1.27;;;;;;;;;;5027376;28;20055;-80
2024/03/21 08:56:46;;;;;;;1.38;1.10;;;;;;;;;;5028474;28;20053;-80
2024/03/21 08:59:13;;;;;;;4.15;1.58;;;;;;;;;;5019330;28;20037;-78
2024/03/21 09:01:39;;;;;;;2.20;1.13;;;;;;;;;;5018510;28;20072;-80
2024/03/21 09:04:05;;;;;;;1.75;1.27;;;;;;;;;;5025433;28;20029;-79
2024/03/21 09:06:32;;;;;;;4.03;1.10;;;;;;;;;;5026612;28;20032;-79
2024/03/21 09:08:59;;;;;;;5.70;1.75;;;;;;;;;;5027223;28;20037;-80
2024/03/21 09:11:27;;;;;;;4.18;1.40;;;;;;;;;;5002285;28;20102;-78
2024/03/21 09:13:54;;;;;;;5.78;1.50;;;;;;;;;;5004840;28;20022;-79
2024/03/21 09:16:20;;;;;;;4.38;1.55;;;;;;;;;;5026207;28;20029;-78
2024/03/21 09:18:46;;;;;;;3.42;1.35;;;;;;;;;;5019571;28;20030;-79
2024/03/21 09:21:12;;;;;;;4.40;1.20;;;;;;;;;;5019123;28;20021;-80
2024/03/21 09:23:39;;;;;;;1.98;1.50;;;;;;;;;;5019450;28;20032;-80
2024/03/21 09:26:06;;;;;;;2.28;1.58;;;;;;;;;;5031781;28;20032;-79
2024/03/21 09:28:32;;;;;;;5.05;1.85;;;;;;;;;;5014211;28;20054;-79
2024/03/21 09:30:58;;;;;;;2.90;1.77;;;;;;;;;;5019276;28;20038;-79
2024/03/21 09:33:24;;;;;;;3.78;2.15;;;;;;;;;;5019171;28;20152;-79
2024/03/21 09:35:57;;;;;;;3.35;1.75;;;;;;;;;;5024779;28;20010;-78
2024/03/21 09:38:23;;;;;;;3.28;2.20;;;;;;;;;;5049323;28;20044;-78
2024/03/21 09:40:49;;;;;;;3.63;2.00;;;;;;;;;;5034857;28;20105;-79
2024/03/21 09:43:16;;;;;;;6.75;2.35;;;;;;;;;;5006852;28;20060;-79
2024/03/21 09:45:44;;;;;;;9.73;2.80;;;;;;;;;;5019425;28;20018;-78
2024/03/21 09:48:11;;;;;;;3.78;2.25;;;;;;;;;;5006996;28;20021;-79
2024/03/21 09:50:41;;;;;;;3.95;2.17;;;;;;;;;;5024295;28;20030;-79
2024/03/21 09:53:09;;;;;;;4.05;2.60;;;;;;;;;;5039756;28;20040;-79
2024/03/21 09:55:37;;;;;;;5.15;2.33;;;;;;;;;;5028073;28;20022;-78
2024/03/21 09:58:05;;;;;;;4.03;2.75;;;;;;;;;;5008952;28;20534;-80
2024/03/21 10:00:31;;;;;;;4.13;2.85;;;;;;;;;;5026633;28;20042;-79
2024/03/21 10:02:57;;;;;;;3.72;2.55;;;;;;;;;;5009176;28;20236;-79
2024/03/21 10:05:24;;;;;;;3.58;2.50;;;;;;;;;;5026700;28;20026;-78
2024/03/21 10:07:50;;;;;;;2.92;2.58;;;;;;;;;;5023004;28;20026;-80
2024/03/21 10:10:16;;;;;;;3.85;2.70;;;;;;;;;;5018783;28;20453;-79
2024/03/21 10:12:42;;;;;;;3.15;2.60;;;;;;;;;;5001042;28;20030;-79
2024/03/21 10:15:11;;;;;;;6.45;2.60;;;;;;;;;;5018956;28;20134;-78
2024/03/21 10:17:37;;;;;;;3.25;2.75;;;;;;;;;;5020696;28;20029;-78
2024/03/21 10:20:04;;;;;;;4.97;3.30;;;;;;;;;;5029101;28;20033;-78
2024/03/21 10:22:30;;;;;;;5.40;2.42;;;;;;;;;;5032022;28;20060;-78
2024/03/21 10:24:57;;;;;;;4.55;3.05;;;;;;;;;;5039297;28;20010;-79
2024/03/21 10:27:24;;;;;;;5.57;2.67;;;;;;;;;;5033083;28;20033;-78
2024/03/21 10:29:50;;;;;;;6.85;3.67;;;;;;;;;;5037685;28;20041;-78
2024/03/21 10:32:21;;;;;;;4.38;2.47;;;;;;;;;;5032292;28;20029;-78
2024/03/21 10:34:51;;;;;;;2.88;2.22;;;;;;;;;;5031220;28;20030;-79
2024/03/21 10:37:17;;;;;;;3.80;2.55;;;;;;;;;;5027023;28;20104;-78
2024/03/21 10:39:44;;;;;;;7.00;3.35;;;;;;;;;;5043427;28;20033;-79
2024/03/21 10:42:17;;;;;;;4.50;3.05;;;;;;;;;;5054545;28;20105;-80
2024/03/21 10:44:44;;;;;;;4.40;2.40;;;;;;;;;;5057880;28;20022;-78
2024/03/21 10:47:11;;;;;;;5.93;2.85;;;;;;;;;;5056910;28;20033;-79
2024/03/21 10:49:37;;;;;;;2.60;2.40;;;;;;;;;;5043470;28;20046;-79
2024/03/21 10:52:05;;;;;;;3.60;2.85;;;;;;;;;;5051847;28;20021;-79
2024/03/21 10:54:38;;;;;;;3.97;2.47;;;;;;;;;;5060441;28;20086;-78
2024/03/21 10:57:15;;;;;;;4.63;2.60;;;;;;;;;;5052774;28;20022;-79
2024/03/21 10:59:43;;;;;;;2.30;2.10;;;;;;;;;;5045065;28;20081;-79
2024/03/21 11:02:18;;;;;;;2.90;2.17;;;;;;;;;;5051718;28;20044;-78
2024/03/21 11:04:44;;;;;;;3.03;2.33;;;;;;;;;;5035148;28;20036;-79
2024/03/21 11:07:13;;;;;;;2.53;2.15;;;;;;;;;;5040945;28;20032;-79
2024/03/21 11:09:42;;;;;;;4.60;2.90;;;;;;;;;;5043258;28;20439;-79
2024/03/21 11:12:10;;;;;;;6.20;2.58;;;;;;;;;;5044910;28;20081;-80
2024/03/21 11:14:37;;;;;;;3.80;2.50;;;;;;;;;;5016513;28;20033;-78
2024/03/21 11:17:04;;;;;;;3.97;2.33;;;;;;;;;;5040163;28;20072;-79
2024/03/21 11:19:30;;;;;;;2.85;2.42;;;;;;;;;;5036134;28;20164;-79
2024/03/21 11:21:56;;;;;;;3.65;2.65;;;;;;;;;;5036351;28;20034;-80
2024/03/21 11:24:24;;;;;;;2.67;2.30;;;;;;;;;;5027526;28;20037;-79
2024/03/21 11:26:50;;;;;;;3.42;2.65;;;;;;;;;;5032608;28;20026;-79
2024/03/21 11:29:17;;;;;;;4.80;2.30;;;;;;;;;;5005330;28;20026;-80
2024/03/21 11:31:43;;;;;;;2.55;2.35;;;;;;;;;;5025641;28;20026;-80
2024/03/21 11:34:12;;;;;;;2.28;2.08;;;;;;;;;;5038054;28;20029;-80
2024/03/21 11:36:39;;;;;;;2.70;1.95;;;;;;;;;;5028422;28;20028;-80
2024/03/21 11:39:06;;;;;;;2.53;1.92;;;;;;;;;;5035514;28;20466;-80
2024/03/21 11:41:32;;;;;;;2.47;2.05;;;;;;;;;;5038295;28;20020;-80
2024/03/21 11:43:58;;;;;;;5.63;2.55;;;;;;;;;;5042904;28;20058;-79
2024/03/21 11:46:25;;;;;;;3.55;2.00;;;;;;;;;;5031021;28;20061;-80
2024/03/21 11:49:03;;;;;;;3.08;1.98;;;;;;;;;;5013114;28;20033;-80
2024/03/21 11:51:30;;;;;;;3.20;1.90;;;;;;;;;;5027789;28;20044;-79
2024/03/21 11:53:59;;;;;;;2.40;2.20;;;;;;;;;;5021623;28;20029;-79
2024/03/21 11:56:25;;;;;;;4.18;2.35;;;;;;;;;;5018937;28;20032;-79
2024/03/21 11:58:52;;;;;;;2.65;2.15;;;;;;;;;;5043255;28;20112;-80
2024/03/21 12:01:18;;;;;;;3.45;2.10;;;;;;;;;;5038008;28;20093;-79
2024/03/21 12:03:44;;;;;;;4.60;3.08;;;;;;;;;;5016481;28;20051;-78
2024/03/21 12:06:11;;;;;;;3.13;2.33;;;;;;;;;;5028416;28;20022;-79
2024/03/21 12:08:37;;;;;;;3.47;2.40;;;;;;;;;;5013149;28;20568;-79
2024/03/21 12:11:05;;;;;;;3.80;2.42;;;;;;;;;;5026495;28;20112;-80
2024/03/21 12:13:31;;;;;;;2.25;1.85;;;;;;;;;;5020852;28;20171;-79
2024/03/21 12:15:58;;;;;;;2.20;1.98;;;;;;;;;;5043882;28;20096;-79
2024/03/21 12:18:30;;;;;;;2.05;1.80;;;;;;;;;;5033990;28;20117;-78
2024/03/21 12:20:56;;;;;;;3.53;2.40;;;;;;;;;;5031897;28;20520;-79
2024/03/21 12:23:23;;;;;;;3.08;1.95;;;;;;;;;;5026179;28;20117;-80
2024/03/21 12:25:49;;;;;;;5.78;2.17;;;;;;;;;;5008931;28;20033;-80
2024/03/21 12:28:15;;;;;;;2.83;2.00;;;;;;;;;;5010538;28;20509;-79
2024/03/21 12:30:41;;;;;;;2.38;1.83;;;;;;;;;;5030643;28;20101;-79
2024/03/21 12:33:07;;;;;;;2.38;2.03;;;;;;;;;;5012937;28;20034;-79
2024/03/21 12:35:34;;;;;;;3.08;1.70;;;;;;;;;;5037813;28;20037;-80
2024/03/21 12:38:01;;;;;;;3.55;2.05;;;;;;;;;;5021005;28;20025;-79
2024/03/21 12:40:27;;;;;;;1.88;1.75;;;;;;;;;;5030104;28;20061;-80
2024/03/21 12:42:53;;;;;;;4.43;2.10;;;;;;;;;;5023519;28;20026;-78
2024/03/21 12:45:19;;;;;;;2.97;2.40;;;;;;;;;;5021273;28;20022;-79
2024/03/21 12:47:45;;;;;;;3.35;2.15;;;;;;;;;;5003643;28;20047;-79
2024/03/21 12:50:12;;;;;;;4.35;2.70;;;;;;;;;;5034789;28;20045;-79
2024/03/21 12:52:38;;;;;;;4.20;2.28;;;;;;;;;;5031549;28;20034;-79
2024/03/21 12:55:06;;;;;;;4.07;2.13;;;;;;;;;;5002940;28;20029;-78
2024/03/21 12:57:32;;;;;;;5.00;2.10;;;;;;;;;;5028996;28;20463;-79
2024/03/21 12:59:59;;;;;;;3.83;3.15;;;;;;;;;;5024848;28;20045;-80
2024/03/21 13:02:25;;;;;;;3.20;2.35;;;;;;;;;;5025336;28;20022;-79
2024/03/21 13:04:51;;;;;;;2.85;2.03;;;;;;;;;;5008582;28;20029;-79
2024/03/21 13:07:17;;;;;;;2.05;1.73;;;;;;;;;;5024471;28;20049;-79
2024/03/21 13:09:43;;;;;;;1.88;1.50;;;;;;;;;;5024921;28;20473;-79
2024/03/21 13:12:10;;;;;;;4.60;3.10;;;;;;;;;;5036329;28;20022;-78
2024/03/21 13:14:36;;;;;;;2.97;2.30;;;;;;;;;;5009163;28;20026;-80
2024/03/21 13:17:03;;;;;;;3.00;2.60;;;;;;;;;;5012146;28;20029;-79
2024/03/21 13:19:31;;;;;;;3.22;2.58;;;;;;;;;;5022606;28;20156;-80
2024/03/21 13:21:58;;;;;;;5.72;2.50;;;;;;;;;;5021542;28;20020;-79
2024/03/21 13:24:24;;;;;;;2.65;1.67;;;;;;;;;;5023248;28;20087;-79
2024/03/21 13:26:50;;;;;;;3.00;1.98;;;;;;;;;;5032205;28;20077;-79
2024/03/21 13:29:17;;;;;;;5.43;2.70;;;;;;;;;;5028312;28;20116;-79
2024/03/21 13:31:43;;;;;;;6.35;3.67;;;;;;;;;;5006488;28;20036;-78
2024/03/21 13:34:09;;;;;;;3.53;2.80;;;;;;;;;;5030735;28;20105;-77
2024/03/21 13:36:36;;;;;;;3.92;2.60;;;;;;;;;;5032304;28;20041;-78
2024/03/21 13:39:04;;;;;;;2.40;2.08;;;;;;;;;;5027800;28;20018;-79
2024/03/21 13:41:31;;;;;;;2.92;1.98;;;;;;;;;;5020764;28;20029;-78
2024/03/21 13:43:58;;;;;;;4.25;2.85;;;;;;;;;;5003127;28;20114;-78
2024/03/21 13:46:24;;;;;;;2.85;2.33;;;;;;;;;;5036086;28;20060;-78
2024/03/21 13:48:50;;;;;;;2.35;1.77;;;;;;;;;;5033525;28;20022;-78
2024/03/21 13:51:16;;;;;;;4.78;2.83;;;;;;;;;;5034619;28;20097;-78
2024/03/21 13:53:43;;;;;;;3.05;2.50;;;;;;;;;;5031897;28;20102;-79
2024/03/21 13:56:09;;;;;;;3.55;3.00;;;;;;;;;;5039382;28;20029;-79
2024/03/21 13:58:35;;;;;;;4.30;2.70;;;;;;;;;;5023511;28;20018;-79
2024/03/21 14:01:02;;;;;;;2.05;1.95;;;;;;;;;;5032133;28;20089;-79
2024/03/21 14:03:28;;;;;;;3.90;2.70;;;;;;;;;;5039339;28;20028;-78
2024/03/21 14:05:54;;;;;;;8.60;3.40;;;;;;;;;;5032779;28;20021;-79
2024/03/21 14:08:21;;;;;;;3.60;2.65;;;;;;;;;;5030173;28;20086;-78
2024/03/21 14:10:47;;;;;;;5.75;4.25;;;;;;;;;;5030184;28;20018;-79
2024/03/21 14:13:15;;;;;;;6.75;3.97;;;;;;;;;;5022131;28;20083;-78
2024/03/21 14:15:41;;;;;;;7.45;4.60;;;;;;;;;;5002531;28;20025;-79
2024/03/21 14:18:08;;;;;;;4.82;3.03;;;;;;;;;;5008152;28;20077;-79
2024/03/21 14:20:35;;;;;;;5.50;3.05;;;;;;;;;;5002046;28;20014;-78
2024/03/21 14:23:01;;;;;;;8.73;3.90;;;;;;;;;;5020078;28;20014;-80
2024/03/21 14:25:28;;;;;;;6.13;4.07;;;;;;;;;;5020012;28;20030;-80
2024/03/21 14:27:54;;;;;;;5.43;3.22;;;;;;;;;;5027644;28;20053;-79
2024/03/21 14:30:20;;;;;;;4.32;3.13;;;;;;;;;;5019443;28;20030;-81
2024/03/21 14:32:48;;;;;;;4.28;3.10;;;;;;;;;;5028826;28;20022;-81
2024/03/21 14:35:15;;;;;;;3.30;3.00;;;;;;;;;;5030715;28;20042;-81
2024/03/21 14:37:41;;;;;;;2.58;2.10;;;;;;;;;;5038355;28;20037;-81
2024/03/21 14:40:10;;;;;;;2.10;2.00;;;;;;;;;;5029969;28;20525;-82
2024/03/21 14:42:37;;;;;;;2.00;1.80;;;;;;;;;;5037484;28;20029;-82